createdAt,value
2022-09-01T00:00:28.791Z,19.72
2022-09-01T00:03:24.513Z,19.66
2022-09-01T00:06:13.999Z,19.58
2022-09-01T00:09:05.429Z,19.60
2022-09-01T00:11:54.581Z,19.59
2022-09-01T00:14:41.901Z,19.54
2022-09-01T00:17:31.068Z,19.47
2022-09-01T00:20:20.727Z,19.38
2022-09-01T00:23:08.109Z,19.33
2022-09-01T00:25:56.411Z,19.26
2022-09-01T00:28:43.933Z,19.22
2022-09-01T00:31:35.041Z,19.18
2022-09-01T00:34:22.992Z,19.14
2022-09-01T00:37:10.430Z,19.03
2022-09-01T00:39:57.724Z,19.05
2022-09-01T00:42:45.518Z,19.04
2022-09-01T00:45:33.303Z,18.99
2022-09-01T00:48:21.769Z,18.95
2022-09-01T00:51:11.340Z,18.98
2022-09-01T00:54:00.586Z,18.92
2022-09-01T00:56:49.729Z,18.95
2022-09-01T00:59:53.668Z,18.99
2022-09-01T01:02:42.119Z,19.00
2022-09-01T01:05:33.138Z,18.95
2022-09-01T01:08:27.376Z,18.82
2022-09-01T01:11:18.479Z,18.84
2022-09-01T01:14:12.361Z,18.80
2022-09-01T01:17:01.080Z,18.73
2022-09-01T01:20:15.280Z,18.81
2022-09-01T01:23:28.390Z,18.73
2022-09-01T01:26:15.635Z,18.72
2022-09-01T01:29:03.616Z,18.64
2022-09-01T01:31:53.184Z,18.66
2022-09-01T01:34:42.529Z,18.76
2022-09-01T01:37:29.937Z,18.77
2022-09-01T01:40:20.310Z,18.74
2022-09-01T01:43:08.083Z,18.70
2022-09-01T01:46:02.739Z,18.72
2022-09-01T01:48:50.509Z,18.74
2022-09-01T01:51:37.861Z,18.73
2022-09-01T01:54:26.930Z,18.71
2022-09-01T01:57:17.137Z,18.60
2022-09-01T02:00:05.258Z,18.63
2022-09-01T02:02:53.505Z,18.52
2022-09-01T02:05:40.883Z,18.58
2022-09-01T02:08:28.157Z,18.55
2022-09-01T02:11:17.213Z,18.43
2022-09-01T02:14:06.560Z,18.40
2022-09-01T02:16:55.811Z,18.41
2022-09-01T02:19:43.253Z,18.28
2022-09-01T02:22:30.571Z,18.17
2022-09-01T02:25:18.894Z,18.22
2022-09-01T02:28:09.495Z,18.18
2022-09-01T02:30:57.850Z,18.06
2022-09-01T02:33:47.035Z,18.02
2022-09-01T02:36:35.210Z,18.01
2022-09-01T02:39:33.517Z,18.00
2022-09-01T02:42:26.744Z,18.09
2022-09-01T02:45:16.207Z,18.13
2022-09-01T02:48:09.707Z,18.08
2022-09-01T02:50:59.344Z,18.03
2022-09-01T02:53:50.576Z,17.81
2022-09-01T02:56:37.901Z,17.99
2022-09-01T02:59:28.758Z,17.87
2022-09-01T03:02:16.037Z,17.78
2022-09-01T03:05:03.698Z,17.79
2022-09-01T03:08:00.563Z,17.86
2022-09-01T03:10:48.385Z,17.90
2022-09-01T03:13:35.613Z,17.95
2022-09-01T03:16:23.042Z,17.94
2022-09-01T03:19:11.961Z,17.91
2022-09-01T03:22:00.133Z,17.80
2022-09-01T03:24:47.475Z,17.69
2022-09-01T03:27:34.792Z,17.68
2022-09-01T03:30:22.071Z,17.73
2022-09-01T03:33:09.988Z,17.71
2022-09-01T03:35:57.305Z,17.65
2022-09-01T03:38:49.750Z,17.69
2022-09-01T03:41:37.985Z,17.67
2022-09-01T03:44:25.556Z,17.70
2022-09-01T03:47:15.192Z,17.72
2022-09-01T03:50:02.564Z,17.74
2022-09-01T03:52:53.569Z,17.62
2022-09-01T03:55:45.033Z,17.67
2022-09-01T03:58:32.636Z,17.47
2022-09-01T04:01:20.247Z,17.32
2022-09-01T04:04:07.754Z,17.19
2022-09-01T04:06:55.128Z,17.22
2022-09-01T04:09:43.925Z,17.21
2022-09-01T04:12:31.887Z,17.31
2022-09-01T04:15:19.465Z,17.32
2022-09-01T04:18:10.434Z,17.33
2022-09-01T04:20:59.505Z,17.27
2022-09-01T04:23:47.010Z,17.18
2022-09-01T04:26:34.309Z,17.26
2022-09-01T04:29:27.460Z,17.26
2022-09-01T04:32:15.614Z,17.22
2022-09-01T04:35:04.043Z,17.10
2022-09-01T04:37:51.330Z,17.08
2022-09-01T04:40:39.739Z,17.13
2022-09-01T04:43:27.149Z,17.11
2022-09-01T04:46:15.464Z,17.14
2022-09-01T04:49:09.624Z,16.95
2022-09-01T04:52:00.732Z,16.88
2022-09-01T04:54:48.846Z,16.72
2022-09-01T04:57:36.777Z,16.60
2022-09-01T05:00:27.797Z,16.72
2022-09-01T05:03:15.164Z,16.68
2022-09-01T05:06:03.625Z,16.70
2022-09-01T05:08:52.277Z,16.78
2022-09-01T05:11:42.488Z,16.92
2022-09-01T05:14:30.715Z,17.05
2022-09-01T05:17:18.673Z,17.11
2022-09-01T05:20:08.061Z,17.13
2022-09-01T05:22:57.760Z,17.15
2022-09-01T05:25:49.091Z,17.28
2022-09-01T05:28:36.373Z,17.28
2022-09-01T05:31:27.962Z,17.18
2022-09-01T05:34:19.914Z,17.18
2022-09-01T05:37:08.746Z,17.04
2022-09-01T05:39:56.143Z,17.23
2022-09-01T05:42:44.767Z,17.17
2022-09-01T05:45:50.214Z,17.13
2022-09-01T05:48:40.094Z,17.02
2022-09-01T05:51:44.357Z,17.01
2022-09-01T05:54:33.820Z,17.08
2022-09-01T05:57:34.245Z,17.08
2022-09-01T06:00:22.595Z,17.14
2022-09-01T06:03:11.468Z,17.41
2022-09-01T06:06:12.142Z,17.59
2022-09-01T06:08:59.553Z,17.72
2022-09-01T06:11:47.470Z,17.74
2022-09-01T06:14:34.918Z,17.86
2022-09-01T06:17:25.270Z,17.90
2022-09-01T06:20:13.402Z,18.02
2022-09-01T06:23:00.905Z,18.07
2022-09-01T06:25:48.317Z,18.09
2022-09-01T06:28:35.997Z,18.16
2022-09-01T06:31:25.205Z,18.22
2022-09-01T06:34:18.009Z,18.22
2022-09-01T06:37:05.353Z,18.22
2022-09-01T06:39:52.808Z,18.22
2022-09-01T06:42:40.167Z,18.26
2022-09-01T06:45:27.428Z,18.34
2022-09-01T06:48:17.705Z,18.40
2022-09-01T06:51:21.788Z,18.42
2022-09-01T07:00:42.024Z,18.54
2022-09-01T07:03:29.662Z,18.55
2022-09-01T07:12:34.298Z,18.57
2022-09-01T07:18:33.801Z,18.73
2022-09-01T07:21:40.789Z,18.76
2022-09-01T07:24:31.788Z,18.69
2022-09-01T07:27:19.876Z,18.77
2022-09-01T07:30:12.865Z,18.80
2022-09-01T07:33:41.577Z,18.86
2022-09-01T07:42:57.065Z,18.44
2022-09-01T07:42:59.353Z,18.57
2022-09-01T07:45:31.674Z,19.01
2022-09-01T07:51:37.856Z,19.03
2022-09-01T07:54:25.459Z,19.23
2022-09-01T07:57:12.742Z,19.23
2022-09-01T08:00:00.077Z,19.25
2022-09-01T08:02:48.091Z,19.28
2022-09-01T08:05:35.381Z,19.27
2022-09-01T08:08:26.397Z,19.38
2022-09-01T08:11:40.046Z,19.42
2022-09-01T08:14:33.697Z,19.47
2022-09-01T08:17:51.186Z,19.56
2022-09-01T08:20:30.288Z,19.60
2022-09-01T08:23:19.474Z,19.63
2022-09-01T08:26:09.617Z,19.65
2022-09-01T08:28:56.945Z,19.65
2022-09-01T08:31:46.782Z,19.67
2022-09-01T08:34:34.849Z,19.63
2022-09-01T08:37:22.183Z,19.65
2022-09-01T08:40:13.628Z,19.66
2022-09-01T08:43:31.203Z,19.68
2022-09-01T08:46:37.834Z,19.73
2022-09-01T08:49:27.103Z,19.76
2022-09-01T08:52:30.796Z,19.88
2022-09-01T08:55:25.819Z,19.98
2022-09-01T08:58:16.702Z,20.01
2022-09-01T09:01:12.019Z,20.08
2022-09-01T09:04:26.681Z,20.13
2022-09-01T09:07:35.141Z,20.22
2022-09-01T09:10:30.516Z,20.23
2022-09-01T09:13:42.470Z,20.33
2022-09-01T09:16:39.873Z,20.40
2022-09-01T09:19:35.948Z,20.43
2022-09-01T09:22:23.213Z,20.41
2022-09-01T09:25:17.478Z,20.51
2022-09-01T09:28:06.804Z,20.55
2022-09-01T09:31:30.073Z,20.51
2022-09-01T09:34:32.568Z,20.53
2022-09-01T09:37:28.241Z,20.52
2022-09-01T09:40:26.836Z,20.57
2022-09-01T09:43:15.769Z,20.70
2022-09-01T09:46:44.370Z,20.97
2022-09-01T09:49:36.430Z,21.12
2022-09-01T09:52:24.741Z,21.27
2022-09-01T09:55:23.326Z,21.38
2022-09-01T09:58:12.453Z,21.40
2022-09-01T10:01:05.822Z,21.43
2022-09-01T10:03:56.939Z,21.52
2022-09-01T10:06:47.652Z,21.75
2022-09-01T10:09:38.245Z,21.88
2022-09-01T10:12:27.135Z,21.92
2022-09-01T10:15:18.931Z,21.95
2022-09-01T10:18:28.296Z,21.98
2022-09-01T10:21:22.625Z,22.03
2022-09-01T10:24:27.071Z,22.10
2022-09-01T10:27:24.926Z,22.21
2022-09-01T10:30:22.301Z,22.18
2022-09-01T10:33:19.211Z,22.34
2022-09-01T10:36:08.868Z,22.44
2022-09-01T10:39:04.392Z,22.52
2022-09-01T10:41:59.396Z,22.67
2022-09-01T10:44:58.859Z,22.68
2022-09-01T10:47:46.388Z,22.64
2022-09-01T10:50:36.686Z,22.55
2022-09-01T10:53:47.060Z,22.50
2022-09-01T10:56:51.264Z,22.52
2022-09-01T10:59:44.226Z,22.62
2022-09-01T11:02:42.411Z,22.72
2022-09-01T11:06:10.984Z,22.81
2022-09-01T11:09:05.217Z,22.90
2022-09-01T11:12:30.931Z,23.02
2022-09-01T11:15:18.104Z,23.10
2022-09-01T11:18:14.648Z,23.17
2022-09-01T11:21:25.768Z,23.28
2022-09-01T11:24:38.185Z,23.38
2022-09-01T11:27:50.340Z,23.49
2022-09-01T11:30:52.839Z,23.57
2022-09-01T11:34:02.960Z,23.68
2022-09-01T11:37:15.069Z,23.66
2022-09-01T11:40:08.099Z,23.65
2022-09-01T11:42:58.840Z,23.66
2022-09-01T11:46:22.488Z,23.71
2022-09-01T11:49:37.230Z,23.78
2022-09-01T11:52:30.426Z,23.78
2022-09-01T11:55:29.417Z,23.61
2022-09-01T11:58:28.966Z,23.53
2022-09-01T12:01:44.574Z,23.62
2022-09-01T12:04:37.813Z,23.62
2022-09-01T12:07:35.267Z,23.53
2022-09-01T12:10:38.399Z,23.43
2022-09-01T12:13:25.719Z,23.42
2022-09-01T12:16:21.590Z,23.43
2022-09-01T12:19:22.023Z,23.53
2022-09-01T12:22:19.842Z,23.61
2022-09-01T12:25:07.610Z,23.53
2022-09-01T12:27:55.554Z,23.44
2022-09-01T12:30:44.594Z,23.40
2022-09-01T12:33:33.132Z,23.35
2022-09-01T12:36:25.006Z,23.32
2022-09-01T12:39:19.469Z,23.30
2022-09-01T12:42:20.119Z,23.50
2022-09-01T12:45:10.046Z,23.80
2022-09-01T12:47:57.325Z,24.10
2022-09-01T12:50:46.397Z,24.34
2022-09-01T12:53:36.500Z,24.65
2022-09-01T12:56:25.006Z,24.92
2022-09-01T12:59:36.340Z,25.11
2022-09-01T13:02:35.059Z,25.33
2022-09-01T13:05:33.652Z,25.38
2022-09-01T13:08:29.840Z,25.22
2022-09-01T13:11:20.160Z,24.88
2022-09-01T13:14:09.040Z,24.62
2022-09-01T13:16:56.263Z,24.40
2022-09-01T13:19:43.562Z,24.32
2022-09-01T13:22:30.850Z,24.26
2022-09-01T13:25:20.427Z,24.20
2022-09-01T13:28:08.814Z,24.22
2022-09-01T13:34:22.128Z,24.67
2022-09-01T13:37:10.849Z,24.82
2022-09-01T13:39:58.114Z,25.04
2022-09-01T13:42:47.744Z,25.23
2022-09-01T13:45:35.077Z,25.34
2022-09-01T13:48:23.373Z,25.41
2022-09-01T13:51:16.090Z,25.42
2022-09-01T13:54:05.803Z,25.43
2022-09-01T13:56:53.812Z,25.27
2022-09-01T13:59:41.757Z,25.22
2022-09-01T14:02:29.057Z,25.24
2022-09-01T14:05:19.388Z,25.39
2022-09-01T14:08:07.798Z,25.48
2022-09-01T14:10:55.069Z,25.59
2022-09-01T14:13:42.314Z,25.52
2022-09-01T14:16:29.937Z,25.47
2022-09-01T14:19:17.420Z,25.39
2022-09-01T14:22:06.050Z,25.45
2022-09-01T14:24:53.344Z,25.46
2022-09-01T14:27:40.984Z,25.55
2022-09-01T14:30:31.673Z,25.65
2022-09-01T14:33:19.524Z,25.55
2022-09-01T14:36:13.201Z,25.51
2022-09-01T14:39:02.188Z,25.50
2022-09-01T14:41:49.616Z,25.53
2022-09-01T14:44:38.233Z,25.50
2022-09-01T14:47:25.580Z,25.51
2022-09-01T14:50:14.993Z,25.48
2022-09-01T14:53:04.525Z,25.56
2022-09-01T14:55:55.615Z,25.56
2022-09-01T14:58:47.057Z,25.45
2022-09-01T15:01:35.219Z,25.33
2022-09-01T15:04:22.708Z,25.43
2022-09-01T15:07:09.954Z,25.52
2022-09-01T15:09:58.884Z,25.60
2022-09-01T15:12:46.165Z,25.66
2022-09-01T15:15:33.781Z,25.71
2022-09-01T15:18:21.149Z,25.66
2022-09-01T15:21:09.174Z,25.52
2022-09-01T15:23:56.901Z,25.44
2022-09-01T15:26:47.217Z,25.42
2022-09-01T15:29:34.861Z,25.33
2022-09-01T15:32:27.996Z,25.25
2022-09-01T15:35:15.949Z,25.16
2022-09-01T15:38:04.921Z,25.09
2022-09-01T15:40:58.265Z,25.11
2022-09-01T15:43:46.488Z,25.08
2022-09-01T15:46:35.152Z,25.05
2022-09-01T15:49:22.494Z,25.10
2022-09-01T15:52:09.747Z,25.16
2022-09-01T15:54:56.977Z,25.22
2022-09-01T15:57:44.316Z,25.23
2022-09-01T16:00:32.870Z,25.23
2022-09-01T16:03:20.515Z,25.26
2022-09-01T16:06:08.451Z,25.30
2022-09-01T16:08:55.848Z,25.24
2022-09-01T16:11:43.093Z,25.16
2022-09-01T16:14:31.002Z,25.10
2022-09-01T16:17:41.233Z,25.00
2022-09-01T16:23:17.212Z,24.78
2022-09-01T16:26:04.777Z,24.72
2022-09-01T16:28:57.539Z,24.66
2022-09-01T16:31:51.438Z,24.54
2022-09-01T16:34:46.670Z,24.48
2022-09-01T16:37:46.073Z,24.44
2022-09-01T16:40:33.304Z,24.42
2022-09-01T16:43:31.939Z,24.36
2022-09-01T16:46:45.519Z,24.42
2022-09-01T16:49:53.165Z,24.42
2022-09-01T16:53:14.973Z,24.43
2022-09-01T16:56:08.936Z,24.40
2022-09-01T17:02:26.104Z,24.27
2022-09-01T17:05:25.314Z,24.23
2022-09-01T17:08:24.059Z,24.16
2022-09-01T17:11:32.842Z,24.16
2022-09-01T17:14:34.954Z,24.10
2022-09-01T17:17:30.363Z,24.04
2022-09-01T17:20:22.405Z,24.01
2022-09-01T17:23:15.466Z,23.97
2022-09-01T17:26:26.573Z,23.92
2022-09-01T17:29:25.951Z,23.88
2022-09-01T17:32:16.236Z,23.80
2022-09-01T17:35:24.852Z,23.73
2022-09-01T17:38:40.164Z,23.66
2022-09-01T17:41:44.653Z,23.55
2022-09-01T17:44:56.015Z,23.45
2022-09-01T17:47:52.019Z,23.41
2022-09-01T17:51:03.001Z,23.33
2022-09-01T17:54:16.864Z,23.22
2022-09-01T17:57:19.770Z,23.15
2022-09-01T18:00:46.421Z,23.06
2022-09-01T18:03:50.292Z,23.02
2022-09-01T18:06:53.596Z,22.96
2022-09-01T18:09:45.329Z,22.89
2022-09-01T18:12:39.197Z,22.82
2022-09-01T18:15:27.336Z,22.80
2022-09-01T18:18:42.456Z,22.75
2022-09-01T18:21:36.179Z,22.69
2022-09-01T18:25:03.780Z,22.61
2022-09-01T18:27:51.113Z,22.54
2022-09-01T18:31:09.841Z,22.50
2022-09-01T18:34:03.059Z,22.47
2022-09-01T18:37:13.086Z,22.42
2022-09-01T18:40:29.430Z,22.37
2022-09-01T18:43:42.206Z,22.34
2022-09-01T18:47:03.677Z,22.31
2022-09-01T18:50:07.936Z,22.27
2022-09-01T18:53:26.630Z,22.24
2022-09-01T18:56:36.927Z,22.18
2022-09-01T18:59:49.816Z,22.13
2022-09-01T19:02:48.270Z,22.08
2022-09-01T19:05:53.486Z,22.03
2022-09-01T19:09:06.793Z,21.98
2022-09-01T19:12:16.288Z,21.93
2022-09-01T19:15:05.417Z,21.90
2022-09-01T19:18:16.819Z,21.86
2022-09-01T19:21:07.879Z,21.83
2022-09-01T19:24:20.716Z,21.82
2022-09-01T19:27:15.636Z,21.78
2022-09-01T19:30:05.979Z,21.72
2022-09-01T19:32:54.698Z,21.70
2022-09-01T19:35:45.392Z,21.65
2022-09-01T19:38:33.339Z,21.60
2022-09-01T19:41:43.281Z,21.61
2022-09-01T19:44:58.537Z,21.59
2022-09-01T19:48:17.888Z,21.59
2022-09-01T19:51:15.039Z,21.55
2022-09-01T19:54:34.619Z,21.52
2022-09-01T19:57:28.561Z,21.48
2022-09-01T20:00:21.477Z,21.35
2022-09-01T20:03:15.853Z,21.40
2022-09-01T20:06:03.238Z,21.37
2022-09-01T20:09:05.978Z,21.33
2022-09-01T20:12:03.538Z,21.30
2022-09-01T20:14:57.905Z,21.30
2022-09-01T20:18:07.908Z,21.28
2022-09-01T20:20:57.925Z,21.27
2022-09-01T20:23:57.427Z,21.26
2022-09-01T20:27:07.831Z,21.22
2022-09-01T20:30:17.668Z,21.21
2022-09-01T20:33:15.113Z,21.19
2022-09-01T20:36:12.504Z,21.16
2022-09-01T20:39:34.925Z,21.15
2022-09-01T20:42:40.180Z,21.19
2022-09-01T20:45:28.983Z,21.18
2022-09-01T20:48:22.189Z,21.17
2022-09-01T20:51:39.060Z,21.19
2022-09-01T20:54:47.566Z,21.19
2022-09-01T20:57:55.177Z,21.17
2022-09-01T21:00:53.774Z,21.10
2022-09-01T21:04:06.248Z,21.14
2022-09-01T21:07:04.703Z,21.11
2022-09-01T21:10:17.578Z,21.09
2022-09-01T21:13:26.558Z,21.06
2022-09-01T21:16:25.321Z,21.00
2022-09-01T21:19:41.066Z,20.98
2022-09-01T21:22:29.477Z,20.95
2022-09-01T21:25:16.896Z,20.92
2022-09-01T21:28:06.594Z,20.88
2022-09-01T21:30:57.432Z,20.85
2022-09-01T21:33:44.795Z,20.85
2022-09-01T21:36:32.103Z,20.79
2022-09-01T21:39:19.665Z,20.78
2022-09-01T21:42:10.626Z,20.73
2022-09-01T21:44:58.491Z,20.72
2022-09-01T21:47:48.036Z,20.64
2022-09-01T21:50:35.173Z,20.62
2022-09-01T21:53:22.522Z,20.57
2022-09-01T21:56:09.880Z,20.55
2022-09-01T21:58:59.283Z,20.49
2022-09-01T22:01:46.631Z,20.47
2022-09-01T22:04:38.377Z,20.42
2022-09-01T22:07:25.655Z,20.45
2022-09-01T22:10:16.694Z,20.41
2022-09-01T22:13:04.045Z,20.32
2022-09-01T22:15:53.197Z,20.32
2022-09-01T22:18:40.456Z,20.31
2022-09-01T22:21:27.744Z,20.27
2022-09-01T22:24:19.105Z,20.19
2022-09-01T22:27:06.833Z,20.22
2022-09-01T22:29:54.097Z,20.20
2022-09-01T22:32:47.390Z,20.18
2022-09-01T22:35:34.648Z,20.12
2022-09-01T22:38:23.155Z,20.08
2022-09-01T22:41:10.469Z,20.09
2022-09-01T22:43:59.930Z,20.07
2022-09-01T22:46:47.149Z,20.06
2022-09-01T22:49:34.385Z,19.94
2022-09-01T22:52:22.054Z,19.95
2022-09-01T22:55:10.436Z,19.83
2022-09-01T22:57:57.670Z,19.90
2022-09-01T23:00:48.511Z,19.93
2022-09-01T23:03:35.808Z,19.91
2022-09-01T23:06:27.495Z,19.86
2022-09-01T23:09:17.273Z,19.79
2022-09-01T23:12:04.723Z,19.55
2022-09-01T23:14:53.989Z,19.79
2022-09-01T23:17:41.292Z,19.73
2022-09-01T23:20:28.619Z,19.72
2022-09-01T23:23:15.852Z,19.67
2022-09-01T23:26:06.263Z,19.62
2022-09-01T23:28:53.921Z,19.62
2022-09-01T23:31:41.464Z,19.52
2022-09-01T23:34:28.832Z,19.56
2022-09-01T23:37:16.588Z,19.48
2022-09-01T23:40:06.252Z,19.50
2022-09-01T23:42:53.569Z,19.49
2022-09-01T23:45:46.322Z,19.47
2022-09-01T23:48:34.532Z,19.42
2022-09-01T23:51:24.230Z,19.41
2022-09-01T23:54:11.969Z,19.31
2022-09-01T23:56:59.520Z,19.32
2022-09-01T23:59:48.901Z,19.29
